Time;durP1;ratioP1;P1;durP2;ratioP2;P2;SDS_P1;SDS_P2;PMS_P1;PMS_P2;Temp;Humidity;BMP_temperature;BMP_pressure;BME280_temperature;BME280_humidity;BME280_pressure;Samples;Min_cycle;Max_cycle;Signal;HPM_P1;HPM_P2
2024/01/22 00:02:18;;;;;;;11.30;7.97;;;;;;;1.47;59.53;97106.63;5020128;28;20237;-67
2024/01/22 00:04:44;;;;;;;10.83;9.73;;;;;;;1.61;59.15;97093.72;5028120;28;20178;-68
2024/01/22 00:07:09;;;;;;;12.47;8.17;;;;;;;1.47;59.38;97089.38;5031206;28;20523;-68
2024/01/22 00:09:34;;;;;;;9.40;7.97;;;;;;;1.42;59.33;97090.22;5030361;28;20218;-68
2024/01/22 00:12:00;;;;;;;16.90;8.47;;;;;;;1.41;59.27;97091.91;5030165;28;20695;-68
2024/01/22 00:14:25;;;;;;;11.00;8.50;;;;;;;1.27;59.52;97086.69;5022056;28;20593;-68
2024/01/22 00:16:50;;;;;;;11.73;8.60;;;;;;;1.13;60.23;97087.50;5030249;28;20174;-69
2024/01/22 00:19:16;;;;;;;11.10;8.50;;;;;;;1.32;59.78;97078.97;5030615;28;20183;-69
2024/01/22 00:21:42;;;;;;;9.70;8.10;;;;;;;1.36;59.99;97075.53;5030348;28;20941;-67
2024/01/22 00:24:08;;;;;;;9.00;8.10;;;;;;;1.29;59.92;97083.28;5018550;28;20179;-66
2024/01/22 00:26:34;;;;;;;9.10;8.00;;;;;;;1.42;59.57;97079.88;5029981;28;20517;-68
2024/01/22 00:28:59;;;;;;;9.83;8.80;;;;;;;1.31;59.83;97069.50;5029339;28;20504;-68
2024/01/22 00:31:25;;;;;;;12.70;8.63;;;;;;;1.44;58.58;97062.63;5029691;28;20229;-67
2024/01/22 00:33:50;;;;;;;9.60;7.50;;;;;;;1.29;58.70;97066.03;5026063;28;20179;-68
2024/01/22 00:36:15;;;;;;;10.47;7.40;;;;;;;1.29;59.80;97062.59;5021254;28;20184;-68
2024/01/22 00:38:41;;;;;;;10.63;8.60;;;;;;;1.32;59.22;97044.50;5028264;28;20192;-67
2024/01/22 00:41:07;;;;;;;9.73;7.67;;;;;;;1.18;59.16;97039.28;5041695;28;20195;-68
2024/01/22 00:43:33;;;;;;;10.47;8.23;;;;;;;1.03;59.69;97040.94;5035681;28;20238;-66
2024/01/22 00:46:00;;;;;;;9.50;7.47;;;;;;;1.04;59.65;97053.03;5043187;28;20420;-66
2024/01/22 00:48:25;;;;;;;13.13;8.27;;;;;;;1.04;60.50;97047.00;5032591;28;20176;-67
2024/01/22 00:50:51;;;;;;;9.67;8.20;;;;;;;0.92;60.47;97034.00;5022506;28;20528;-67
2024/01/22 00:53:16;;;;;;;11.20;6.87;;;;;;;1.02;60.56;97041.81;5030168;28;20211;-69
2024/01/22 00:55:42;;;;;;;11.67;7.70;;;;;;;0.91;60.60;97027.13;5030193;28;20182;-67
2024/01/22 00:58:07;;;;;;;10.30;8.10;;;;;;;0.95;60.43;97029.72;5030014;28;20199;-67
2024/01/22 01:00:32;;;;;;;11.73;8.70;;;;;;;0.87;60.91;97028.81;5019779;28;20292;-66
2024/01/22 01:02:58;;;;;;;10.40;8.10;;;;;;;0.92;60.55;97024.56;5029165;28;20280;-67
2024/01/22 01:05:23;;;;;;;11.53;9.10;;;;;;;1.03;60.20;97028.03;5028771;28;20172;-67
2024/01/22 01:07:48;;;;;;;11.60;9.07;;;;;;;1.02;59.94;97028.91;5035480;28;20172;-67
2024/01/22 01:10:14;;;;;;;10.73;8.63;;;;;;;1.07;59.72;97026.34;5024161;28;20753;-67
2024/01/22 01:12:40;;;;;;;9.83;7.50;;;;;;;1.08;60.06;97022.00;5022424;28;20250;-67
2024/01/22 01:15:06;;;;;;;10.80;8.93;;;;;;;0.92;60.76;97015.91;5030944;28;20242;-68
2024/01/22 01:17:31;;;;;;;11.73;9.37;;;;;;;0.92;60.20;97021.09;5030491;28;20294;-68
2024/01/22 01:19:57;;;;;;;10.27;7.57;;;;;;;0.95;60.75;97006.47;5022395;28;20541;-67
2024/01/22 01:22:22;;;;;;;11.73;7.73;;;;;;;0.84;60.80;97008.16;5029889;28;20186;-67
2024/01/22 01:24:48;;;;;;;9.83;7.40;;;;;;;0.95;60.53;97000.44;5030712;28;20178;-66
2024/01/22 01:27:14;;;;;;;12.00;8.97;;;;;;;1.13;60.16;97002.22;5030732;28;20176;-68
2024/01/22 01:29:40;;;;;;;11.30;7.97;;;;;;;1.12;59.90;96997.91;5028522;28;20314;-68
2024/01/22 01:32:05;;;;;;;11.33;8.63;;;;;;;1.12;60.02;96995.31;5030151;28;20508;-67
2024/01/22 01:34:31;;;;;;;10.80;8.63;;;;;;;1.09;60.06;96985.84;5014645;28;20191;-68
2024/01/22 01:36:56;;;;;;;13.03;8.20;;;;;;;1.20;60.17;96991.03;5010749;28;20198;-67
2024/01/22 01:39:22;;;;;;;11.63;8.77;;;;;;;1.02;60.38;96990.13;5010134;28;20699;-67
2024/01/22 01:41:50;;;;;;;9.23;7.47;;;;;;;0.89;60.68;96985.78;5031011;28;20198;-67
2024/01/22 01:44:16;;;;;;;11.67;8.00;;;;;;;0.89;60.55;96980.59;5030481;28;20203;-67
2024/01/22 01:46:41;;;;;;;9.20;7.90;;;;;;;0.84;60.80;96979.72;5030057;28;20473;-68
2024/01/22 01:49:08;;;;;;;14.50;8.47;;;;;;;0.77;60.92;96967.66;5021961;28;20179;-67
2024/01/22 01:51:34;;;;;;;10.53;8.93;;;;;;;0.74;61.05;96957.31;5029939;28;20291;-67
2024/01/22 01:54:04;;;;;;;8.60;7.73;;;;;;;0.68;61.48;96954.69;5029604;28;20417;-68
2024/01/22 01:56:30;;;;;;;15.63;8.20;;;;;;;0.82;60.52;96961.63;5029862;28;20497;-68
2024/01/22 01:58:55;;;;;;;9.67;8.40;;;;;;;0.74;60.85;96965.06;5018898;28;20832;-68
2024/01/22 02:01:21;;;;;;;10.43;7.93;;;;;;;0.88;60.95;96957.38;5029817;28;20435;-68
2024/01/22 02:03:47;;;;;;;9.03;7.57;;;;;;;0.88;60.90;96955.63;5029569;28;20267;-67
2024/01/22 02:06:13;;;;;;;9.87;7.17;;;;;;;0.69;60.34;96956.44;5029559;28;20414;-66
2024/01/22 02:08:38;;;;;;;7.70;6.90;;;;;;;0.84;60.13;96961.63;5028950;28;20187;-66
2024/01/22 02:11:04;;;;;;;15.77;8.37;;;;;;;0.69;60.86;96959.88;5029667;28;20196;-67
2024/01/22 02:13:29;;;;;;;12.00;7.57;;;;;;;0.69;60.42;96954.72;5030163;28;20959;-68
2024/01/22 02:15:55;;;;;;;9.50;7.57;;;;;;;0.71;60.49;96947.84;5030232;28;20172;-68
2024/01/22 02:18:20;;;;;;;10.60;6.90;;;;;;;0.58;60.42;96936.56;5019892;28;20192;-68
2024/01/22 02:20:46;;;;;;;14.00;7.87;;;;;;;0.66;60.06;96933.16;5021348;28;20199;-68
2024/01/22 02:23:11;;;;;;;9.40;7.80;;;;;;;0.59;60.23;96929.69;5028764;28;20176;-68
2024/01/22 02:25:36;;;;;;;9.80;7.50;;;;;;;0.57;60.94;96929.69;5029269;28;20601;-67
2024/01/22 02:28:02;;;;;;;11.03;7.70;;;;;;;0.59;60.61;96911.59;5020070;28;20172;-67
2024/01/22 02:30:27;;;;;;;7.10;6.00;;;;;;;0.71;59.04;96909.09;5025882;28;20363;-67
2024/01/22 02:32:53;;;;;;;8.23;6.67;;;;;;;0.68;59.76;96908.19;5023706;28;20180;-66
2024/01/22 02:35:18;;;;;;;8.77;6.60;;;;;;;0.68;60.06;96916.81;5027307;28;20176;-67
2024/01/22 02:37:44;;;;;;;11.53;7.30;;;;;;;0.58;59.66;96903.00;5028559;28;20501;-67
2024/01/22 02:40:10;;;;;;;7.80;6.63;;;;;;;0.49;60.82;96896.94;5028167;28;20250;-66
2024/01/22 02:42:35;;;;;;;9.93;7.63;;;;;;;0.56;60.55;96888.38;5028387;28;20532;-66
2024/01/22 02:45:01;;;;;;;8.27;6.90;;;;;;;0.65;60.00;96882.38;5018329;28;20498;-66
2024/01/22 02:47:26;;;;;;;11.73;7.97;;;;;;;0.46;61.26;96884.91;5028046;28;20981;-68
2024/01/22 02:49:52;;;;;;;11.07;7.47;;;;;;;0.52;61.12;96877.19;5028505;28;20178;-68
2024/01/22 02:52:18;;;;;;;9.83;7.30;;;;;;;0.46;60.91;96874.56;5029334;28;20163;-68
2024/01/22 02:54:43;;;;;;;7.90;6.87;;;;;;;0.54;61.49;96874.56;5020807;28;20675;-68
2024/01/22 02:57:10;;;;;;;11.43;8.43;;;;;;;0.15;62.14;96871.00;5023245;28;20205;-67
2024/01/22 02:59:37;;;;;;;9.63;7.70;;;;;;;0.28;62.20;96871.91;5029139;28;20551;-68
2024/01/22 03:02:03;;;;;;;8.77;7.53;;;;;;;0.35;62.23;96864.19;5028504;28;20445;-67
2024/01/22 03:04:28;;;;;;;9.03;7.60;;;;;;;0.47;61.71;96857.34;5028287;28;20549;-67
2024/01/22 03:06:55;;;;;;;8.07;7.23;;;;;;;0.42;61.36;96857.31;5029258;28;20469;-67
2024/01/22 03:09:20;;;;;;;8.10;7.33;;;;;;;0.52;61.95;96848.78;5022629;28;20180;-67
2024/01/22 03:11:45;;;;;;;10.03;7.63;;;;;;;0.57;62.05;96836.72;5009732;28;20581;-68
2024/01/22 03:14:11;;;;;;;12.33;8.23;;;;;;;0.47;61.48;96834.97;5020632;28;20199;-67
2024/01/22 03:16:36;;;;;;;8.37;6.63;;;;;;;0.55;61.32;96822.94;5029712;28;20244;-67
2024/01/22 03:19:02;;;;;;;11.97;8.77;;;;;;;0.53;62.29;96832.41;5029229;28;20199;-67
2024/01/22 03:21:27;;;;;;;11.47;8.70;;;;;;;0.35;62.63;96833.22;5019762;28;20267;-68
2024/01/22 03:23:52;;;;;;;12.83;9.47;;;;;;;0.60;62.53;96831.56;5029490;28;20179;-68
2024/01/22 03:26:22;;;;;;;13.13;8.20;;;;;;;0.79;61.42;96834.19;5031980;28;20641;-67
2024/01/22 03:28:49;;;;;;;12.30;8.53;;;;;;;0.95;60.59;96843.69;5037268;28;20171;-69
2024/01/22 03:31:29;;;;;;;12.70;8.80;;;;;;;0.66;62.01;96840.19;5036836;28;20422;-67
2024/01/22 03:33:56;;;;;;;9.03;7.80;;;;;;;0.48;63.54;96851.34;5029411;28;20406;-66
2024/01/22 03:36:22;;;;;;;14.47;8.20;;;;;;;0.58;62.83;96850.50;5027116;28;20438;-66
2024/01/22 03:38:47;;;;;;;12.93;8.53;;;;;;;0.68;62.33;96851.38;5025820;28;20462;-67
2024/01/22 03:41:13;;;;;;;10.47;8.90;;;;;;;0.77;62.70;96841.06;5025631;28;20461;-66
2024/01/22 03:43:40;;;;;;;16.40;9.27;;;;;;;0.79;62.07;96841.94;5026867;28;20194;-66
2024/01/22 03:46:05;;;;;;;11.53;7.97;;;;;;;1.09;61.68;96847.97;5027330;28;20234;-67
2024/01/22 03:48:31;;;;;;;12.23;8.60;;;;;;;0.92;61.45;96845.38;5021754;28;20435;-68
2024/01/22 03:50:56;;;;;;;9.60;8.17;;;;;;;0.96;62.05;96836.78;5024949;28;20195;-68
2024/01/22 03:53:21;;;;;;;10.60;6.80;;;;;;;1.03;60.69;96834.19;5025518;28;20270;-67
2024/01/22 03:55:47;;;;;;;7.60;5.70;;;;;;;0.99;60.88;96840.25;5025348;28;20190;-69
2024/01/22 03:58:12;;;;;;;9.23;6.73;;;;;;;0.95;61.20;96854.00;5022921;28;21043;-68
2024/01/22 04:00:38;;;;;;;7.80;6.73;;;;;;;1.04;61.15;96850.59;5024022;28;20218;-68
2024/01/22 04:03:04;;;;;;;8.07;6.63;;;;;;;1.09;60.64;96854.03;5025364;28;20179;-69
2024/01/22 04:05:29;;;;;;;21.53;6.13;;;;;;;1.18;60.08;96840.22;5025988;28;20175;-68
2024/01/22 04:07:55;;;;;;;6.80;5.87;;;;;;;1.10;60.36;96834.22;5025660;28;20458;-66
2024/01/22 04:10:21;;;;;;;7.57;6.10;;;;;;;1.29;59.69;96830.75;5012438;28;20290;-67
2024/01/22 04:12:46;;;;;;;8.53;6.53;;;;;;;1.06;60.82;96828.16;5025131;28;20180;-68
2024/01/22 04:15:11;;;;;;;5.97;5.37;;;;;;;1.01;60.88;96819.56;5024528;28;20175;-66
2024/01/22 04:17:37;;;;;;;6.63;5.93;;;;;;;0.96;60.74;96813.53;5023039;28;20199;-66
2024/01/22 04:20:03;;;;;;;9.23;6.00;;;;;;;0.82;61.18;96816.09;5019742;28;20207;-68
2024/01/22 04:22:29;;;;;;;17.60;6.17;;;;;;;1.03;61.44;96808.34;5009757;28;20188;-67
2024/01/22 04:24:54;;;;;;;7.67;5.90;;;;;;;0.94;61.20;96813.50;5006560;28;20415;-68
2024/01/22 04:27:20;;;;;;;6.67;5.93;;;;;;;0.77;61.83;96813.50;5005576;28;20547;-68
2024/01/22 04:29:45;;;;;;;11.10;6.60;;;;;;;1.05;61.00;96818.69;5015013;28;20708;-68
2024/01/22 04:32:10;;;;;;;9.50;7.00;;;;;;;1.08;60.83;96825.59;5024469;28;20175;-68
2024/01/22 04:34:37;;;;;;;19.30;6.37;;;;;;;1.12;60.82;96819.56;5023613;28;20174;-68
2024/01/22 04:37:04;;;;;;;6.87;5.80;;;;;;;1.05;61.40;96806.63;5017961;28;20204;-68
2024/01/22 04:39:29;;;;;;;12.13;5.70;;;;;;;1.11;60.25;96803.19;5020313;28;20822;-67
2024/01/22 04:41:54;;;;;;;8.50;5.63;;;;;;;1.20;60.90;96812.66;5024733;28;20478;-67
2024/01/22 04:44:20;;;;;;;5.87;5.27;;;;;;;1.10;61.13;96798.03;5025988;28;20182;-66
2024/01/22 04:46:45;;;;;;;8.13;5.47;;;;;;;1.20;60.76;96794.56;5026954;28;20184;-68
2024/01/22 04:49:11;;;;;;;10.30;5.40;;;;;;;1.04;61.13;96789.41;5023435;28;20186;-69
2024/01/22 04:51:36;;;;;;;7.70;5.97;;;;;;;1.05;62.04;96796.28;5028225;28;20211;-67
2024/01/22 04:54:02;;;;;;;9.77;6.97;;;;;;;1.25;60.66;96787.66;5027651;28;20168;-67
2024/01/22 04:56:27;;;;;;;9.23;7.83;;;;;;;1.20;61.05;96791.97;5027438;28;20177;-69
2024/01/22 04:58:53;;;;;;;9.63;7.00;;;;;;;1.35;60.72;96791.13;5020232;28;20302;-68
2024/01/22 05:01:19;;;;;;;9.77;6.77;;;;;;;1.17;61.24;96804.91;5017254;28;20709;-69
2024/01/22 05:03:44;;;;;;;7.70;6.50;;;;;;;1.08;61.04;96805.78;5016671;28;20180;-65
2024/01/22 05:06:10;;;;;;;6.27;5.13;;;;;;;0.97;62.26;96795.44;5027740;28;20168;-66
2024/01/22 05:08:35;;;;;;;7.60;6.30;;;;;;;1.02;61.86;96798.88;5022691;28;20175;-68
2024/01/22 05:11:01;;;;;;;10.83;6.43;;;;;;;1.20;61.95;96789.38;5027128;28;20905;-67
2024/01/22 05:13:26;;;;;;;6.00;5.30;;;;;;;0.79;62.18;96785.97;5027830;28;20178;-67
2024/01/22 05:15:51;;;;;;;6.87;5.23;;;;;;;1.14;62.11;96786.84;5027611;28;20643;-67
2024/01/22 05:18:17;;;;;;;11.03;5.90;;;;;;;1.26;60.93;96779.06;5019542;28;20271;-66
2024/01/22 05:20:42;;;;;;;7.83;6.00;;;;;;;1.40;61.14;96774.72;5027476;28;20215;-67
2024/01/22 05:23:08;;;;;;;6.50;5.90;;;;;;;1.27;61.83;96773.00;5028008;28;20203;-67
2024/01/22 05:25:33;;;;;;;6.90;5.83;;;;;;;1.39;61.35;96770.41;5020579;28;20185;-67
2024/01/22 05:27:58;;;;;;;8.30;5.83;;;;;;;1.52;60.95;96768.66;5016913;28;20262;-68
2024/01/22 05:30:24;;;;;;;7.00;5.60;;;;;;;1.44;60.53;96784.19;5027292;28;20267;-67
2024/01/22 05:32:50;;;;;;;6.50;5.77;;;;;;;1.69;59.96;96773.78;5027338;28;20195;-68
2024/01/22 05:35:16;;;;;;;7.57;5.60;;;;;;;1.81;59.63;96763.38;5023653;28;20729;-68
2024/01/22 05:37:41;;;;;;;6.83;6.03;;;;;;;1.75;59.99;96762.53;5026231;28;20453;-67
2024/01/22 05:40:10;;;;;;;7.40;5.80;;;;;;;1.69;59.73;96763.44;5019791;28;20204;-67
2024/01/22 05:42:35;;;;;;;11.77;5.70;;;;;;;1.63;60.90;96771.19;5007119;28;20655;-67
2024/01/22 05:45:02;;;;;;;12.73;6.13;;;;;;;1.95;58.99;96752.97;5007174;28;20439;-68
2024/01/22 05:47:27;;;;;;;9.70;5.13;;;;;;;2.16;58.49;96753.75;5016502;28;20233;-68
2024/01/22 05:49:53;;;;;;;8.13;4.70;;;;;;;2.18;57.89;96749.44;5027100;28;21143;-66
2024/01/22 05:52:19;;;;;;;10.13;4.83;;;;;;;2.18;58.08;96750.28;5017695;28;20176;-69
2024/01/22 05:54:45;;;;;;;8.60;5.50;;;;;;;2.36;57.47;96731.19;5038598;28;20215;-66
2024/01/22 05:57:10;;;;;;;12.17;5.33;;;;;;;2.42;57.37;96732.88;5036997;28;21190;-68
2024/01/22 05:59:39;;;;;;;6.80;5.40;;;;;;;2.30;57.40;96737.25;5046510;28;20206;-67
2024/01/22 06:02:05;;;;;;;9.00;4.90;;;;;;;2.30;57.75;96732.09;5046959;28;20195;-66
2024/01/22 06:04:31;;;;;;;6.43;4.93;;;;;;;2.42;57.49;96736.34;5047085;28;20417;-68
2024/01/22 06:06:56;;;;;;;7.20;4.30;;;;;;;2.31;57.66;96731.19;5035433;28;20499;-71
2024/01/22 06:09:22;;;;;;;5.77;4.63;;;;;;;2.36;57.58;96730.31;5045471;28;20847;-68
2024/01/22 06:11:47;;;;;;;7.40;4.57;;;;;;;2.41;57.55;96733.75;5039668;28;20202;-68
2024/01/22 06:14:12;;;;;;;7.37;5.40;;;;;;;2.46;57.22;96739.78;5046302;28;20254;-68
2024/01/22 06:16:38;;;;;;;7.00;5.57;;;;;;;2.51;56.69;96725.91;5048468;28;20282;-68
2024/01/22 06:19:03;;;;;;;8.70;4.70;;;;;;;2.51;57.43;96725.91;5047684;28;20210;-69
2024/01/22 06:21:29;;;;;;;7.60;4.67;;;;;;;2.50;57.25;96725.91;5049130;28;20198;-67
2024/01/22 06:23:54;;;;;;;8.40;5.03;;;;;;;2.58;56.97;96718.97;5049395;28;20739;-67
2024/01/22 06:26:21;;;;;;;7.30;5.00;;;;;;;2.55;57.21;96721.56;5044592;28;20555;-68
2024/01/22 06:28:47;;;;;;;8.33;5.73;;;;;;;2.61;56.91;96716.34;5037100;28;20908;-67
2024/01/22 06:31:13;;;;;;;7.47;5.07;;;;;;;2.52;56.84;96721.59;5038327;28;20453;-67
2024/01/22 06:33:39;;;;;;;8.70;5.80;;;;;;;2.67;57.23;96724.06;5046250;28;21201;-69
2024/01/22 06:36:06;;;;;;;8.10;4.73;;;;;;;2.67;56.76;96728.38;5047821;28;20409;-67
2024/01/22 06:38:32;;;;;;;9.10;5.90;;;;;;;2.70;56.54;96728.38;5042025;28;20197;-66
2024/01/22 06:40:57;;;;;;;6.97;5.17;;;;;;;2.77;56.78;96721.41;5042881;28;21111;-69
2024/01/22 06:43:22;;;;;;;8.53;5.70;;;;;;;2.83;56.34;96716.16;5039860;28;20756;-68
2024/01/22 06:45:48;;;;;;;7.80;4.40;;;;;;;2.86;56.41;96716.13;5037486;28;20235;-69
2024/01/22 06:48:13;;;;;;;10.20;5.47;;;;;;;2.68;57.17;96724.94;5035898;28;20175;-68
2024/01/22 06:50:39;;;;;;;16.57;6.50;;;;;;;2.68;56.88;96723.19;5037700;28;20237;-68
2024/01/22 06:53:04;;;;;;;10.63;4.60;;;;;;;2.90;56.75;96723.88;5025501;28;20187;-68
2024/01/22 06:55:30;;;;;;;13.33;5.60;;;;;;;2.95;56.64;96719.53;5032333;28;20287;-68
2024/01/22 06:57:55;;;;;;;9.37;5.87;;;;;;;2.96;56.02;96707.41;5034784;28;20658;-65
2024/01/22 07:00:21;;;;;;;5.67;4.97;;;;;;;2.82;56.80;96699.75;5033699;28;20315;-66
2024/01/22 07:02:48;;;;;;;7.77;5.47;;;;;;;2.88;56.55;96696.25;5044341;28;20864;-67
2024/01/22 07:05:14;;;;;;;8.03;5.53;;;;;;;2.82;57.41;96685.94;5045205;28;20199;-67
2024/01/22 07:07:39;;;;;;;6.03;5.43;;;;;;;2.71;57.46;96681.69;5042011;28;20479;-69
2024/01/22 07:10:07;;;;;;;9.53;6.33;;;;;;;2.90;57.23;96682.38;5033020;28;20191;-67
2024/01/22 07:12:34;;;;;;;5.77;4.83;;;;;;;2.99;57.20;96680.59;5041045;28;20241;-68
2024/01/22 07:15:00;;;;;;;8.30;5.60;;;;;;;2.89;57.29;96685.03;5043096;28;20487;-67
2024/01/22 07:17:26;;;;;;;6.83;5.80;;;;;;;2.72;57.73;96688.63;5023736;28;20464;-67
2024/01/22 07:19:51;;;;;;;11.73;6.80;;;;;;;2.63;58.75;96704.22;5035153;28;20429;-68
2024/01/22 07:22:17;;;;;;;10.30;6.37;;;;;;;2.88;57.57;96699.72;5029754;28;20970;-67
2024/01/22 07:24:42;;;;;;;11.03;5.83;;;;;;;2.86;57.88;96696.28;5030593;28;20214;-68
2024/01/22 07:27:08;;;;;;;6.80;5.23;;;;;;;2.87;57.72;96695.38;5027044;28;20163;-66
2024/01/22 07:29:36;;;;;;;6.83;6.20;;;;;;;2.96;57.08;96702.22;5033734;28;20225;-70
2024/01/22 07:32:02;;;;;;;7.23;5.57;;;;;;;3.11;56.85;96698.63;5050175;28;20626;-67
2024/01/22 07:34:27;;;;;;;7.10;5.20;;;;;;;3.05;56.94;96704.75;5034127;28;20417;-68
2024/01/22 07:36:53;;;;;;;7.63;5.50;;;;;;;3.11;56.83;96707.25;5032739;28;20285;-68
2024/01/22 07:39:19;;;;;;;8.80;5.27;;;;;;;2.98;57.38;96700.50;5029921;28;20175;-68
2024/01/22 07:41:45;;;;;;;6.67;4.40;;;;;;;3.05;56.81;96693.50;5033489;28;20492;-68
2024/01/22 07:44:10;;;;;;;13.63;6.17;;;;;;;3.13;56.67;96702.91;5024690;28;20414;-68
2024/01/22 07:46:36;;;;;;;9.57;7.50;;;;;;;3.14;56.48;96707.25;5027307;28;20176;-68
2024/01/22 07:49:01;;;;;;;12.47;6.67;;;;;;;3.05;57.11;96704.75;5025037;28;20967;-67
2024/01/22 07:51:27;;;;;;;12.37;7.80;;;;;;;3.18;57.07;96718.44;5023856;28;20201;-68
2024/01/22 07:53:54;;;;;;;12.80;6.33;;;;;;;3.15;57.47;96708.09;5040334;28;20188;-67
2024/01/22 07:56:20;;;;;;;19.23;7.73;;;;;;;3.36;57.00;96710.47;5038566;28;20845;-66
2024/01/22 07:58:46;;;;;;;13.30;6.83;;;;;;;3.30;56.63;96701.91;5046595;28;20557;-68
2024/01/22 08:01:11;;;;;;;9.50;5.30;;;;;;;3.25;57.07;96703.69;5028571;28;20553;-68
2024/01/22 08:03:38;;;;;;;21.20;6.40;;;;;;;3.26;57.07;96701.09;5034149;28;20194;-67
2024/01/22 08:06:04;;;;;;;11.70;5.47;;;;;;;3.14;57.64;96686.50;5031147;28;20642;-68
2024/01/22 08:08:29;;;;;;;6.13;4.77;;;;;;;3.22;57.41;96693.34;5030437;28;20865;-69
2024/01/22 08:10:58;;;;;;;8.30;4.80;;;;;;;3.25;57.53;96691.56;5043305;28;20498;-67
2024/01/22 08:13:23;;;;;;;7.90;5.20;;;;;;;3.21;57.84;96692.47;5050434;28;20254;-67
2024/01/22 08:15:49;;;;;;;7.20;5.90;;;;;;;3.24;57.51;96695.03;5038982;28;20516;-67
2024/01/22 08:18:15;;;;;;;6.40;5.10;;;;;;;3.27;57.54;96686.38;5041006;28;20938;-68
2024/01/22 08:20:41;;;;;;;6.13;5.03;;;;;;;3.37;56.77;96688.84;5041442;28;20474;-69
2024/01/22 08:23:08;;;;;;;7.67;5.60;;;;;;;3.43;57.26;96687.06;5042345;28;20270;-67
2024/01/22 08:25:34;;;;;;;8.47;4.70;;;;;;;3.38;57.14;96685.38;5031663;28;20513;-68
2024/01/22 08:27:59;;;;;;;13.13;4.87;;;;;;;6.06;82.77;96671.50;5036139;28;20796;-68
2024/01/22 08:30:25;;;;;;;15.23;5.43;;;;;;;7.75;74.55;96651.59;5031283;28;20666;-68
2024/01/22 08:32:51;;;;;;;9.03;5.27;;;;;;;5.98;52.83;96655.19;5036817;28;20202;-68
2024/01/22 08:35:20;;;;;;;21.73;5.93;;;;;;;4.70;54.34;96658.44;5041494;28;20464;-69
2024/01/22 08:37:50;;;;;;;29.13;8.63;;;;;;;4.11;56.06;96661.09;5038345;28;20204;-68
2024/01/22 08:40:19;;;;;;;6.97;5.23;;;;;;;3.86;56.28;96664.03;5036257;28;20871;-69
2024/01/22 08:42:49;;;;;;;5.07;4.30;;;;;;;3.80;56.96;96664.09;5035585;28;20433;-70
2024/01/22 08:45:14;;;;;;;6.27;4.60;;;;;;;3.72;57.57;96664.22;5034874;28;20430;-68
2024/01/22 08:47:40;;;;;;;9.13;5.00;;;;;;;3.75;57.14;96655.53;5037781;28;20429;-69
2024/01/22 08:50:05;;;;;;;6.57;5.00;;;;;;;3.69;57.44;96653.03;5031124;28;20199;-69
2024/01/22 08:52:31;;;;;;;7.10;4.30;;;;;;;3.72;57.34;96660.75;5048497;28;20543;-68
2024/01/22 08:54:56;;;;;;;5.20;4.17;;;;;;;3.71;56.92;96661.63;5043245;28;20561;-68
2024/01/22 08:57:22;;;;;;;6.10;4.37;;;;;;;3.77;56.66;96669.34;5032610;28;20682;-69
2024/01/22 08:59:48;;;;;;;5.03;3.83;;;;;;;3.75;56.36;96665.91;5043284;28;20608;-67
2024/01/22 09:02:14;;;;;;;4.87;4.00;;;;;;;3.71;56.75;96644.34;5047566;28;20211;-68
2024/01/22 09:04:39;;;;;;;6.03;4.60;;;;;;;3.76;57.01;96639.09;5044749;28;20474;-69
2024/01/22 09:07:05;;;;;;;9.67;5.00;;;;;;;3.64;56.71;96629.72;5039102;28;20179;-67
2024/01/22 09:09:30;;;;;;;9.13;5.03;;;;;;;3.60;57.34;96633.22;5040046;28;20190;-69
2024/01/22 09:11:55;;;;;;;5.90;4.77;;;;;;;3.62;57.35;96625.44;5044805;28;20249;-67
2024/01/22 09:14:21;;;;;;;5.23;4.20;;;;;;;3.59;57.11;96634.09;5032228;28;20274;-67
2024/01/22 09:16:46;;;;;;;7.00;4.87;;;;;;;3.84;55.92;96620.81;5042185;28;20178;-67
2024/01/22 09:19:12;;;;;;;8.00;4.47;;;;;;;3.65;56.26;96626.25;5033491;28;20206;-67
2024/01/22 09:21:37;;;;;;;5.40;4.67;;;;;;;3.71;55.98;96630.47;5043629;28;20671;-67
2024/01/22 09:24:02;;;;;;;5.23;4.43;;;;;;;3.71;56.20;96625.28;5036685;28;20190;-67
2024/01/22 09:26:28;;;;;;;8.50;5.60;;;;;;;3.74;56.15;96639.09;5035084;28;20184;-66
2024/01/22 09:35:39;;;;;;;9.00;5.27;;;;;;;3.78;56.10;96639.91;5039447;28;20490;-66
2024/01/22 09:38:04;;;;;;;6.33;4.83;;;;;;;3.82;56.17;96636.41;5048686;28;20449;-67
2024/01/22 09:40:33;;;;;;;6.73;5.20;;;;;;;4.03;55.86;96636.09;5048871;28;20459;-67
2024/01/22 09:43:03;;;;;;;6.10;4.43;;;;;;;4.14;55.38;96632.50;5049635;28;20171;-67
2024/01/22 09:45:28;;;;;;;5.53;4.43;;;;;;;4.07;55.72;96623.94;5049016;28;20413;-67
2024/01/22 09:47:54;;;;;;;8.20;5.50;;;;;;;4.12;55.43;96618.69;5049954;28;20483;-68
2024/01/22 09:50:20;;;;;;;5.90;4.40;;;;;;;4.09;55.53;96598.81;5052180;28;20274;-67
2024/01/22 09:52:49;;;;;;;6.83;4.60;;;;;;;4.14;55.28;96609.13;5052582;28;20216;-67
2024/01/22 09:55:15;;;;;;;7.30;4.00;;;;;;;4.17;55.09;96596.09;5052069;28;20529;-69
2024/01/22 09:57:45;;;;;;;6.53;5.57;;;;;;;4.33;55.36;96594.97;5051799;28;20457;-68
2024/01/22 10:00:16;;;;;;;5.87;4.83;;;;;;;4.36;54.94;96589.69;5052040;28;20206;-67
2024/01/22 10:02:42;;;;;;;7.60;4.80;;;;;;;4.40;55.03;96575.78;5051515;28;20421;-68
2024/01/22 10:05:08;;;;;;;7.13;4.70;;;;;;;4.56;54.99;96572.91;5051353;28;20435;-68
2024/01/22 10:07:33;;;;;;;8.73;4.60;;;;;;;4.56;54.68;96575.50;5051295;28;20410;-67
2024/01/22 10:09:59;;;;;;;6.17;4.97;;;;;;;4.81;54.25;96576.78;5051141;28;20171;-68
2024/01/22 10:12:24;;;;;;;7.07;5.37;;;;;;;4.69;54.03;96578.78;5049860;28;20217;-68
2024/01/22 10:14:49;;;;;;;7.13;5.77;;;;;;;4.79;53.88;96581.16;5049542;28;20167;-67
2024/01/22 10:17:18;;;;;;;8.00;5.13;;;;;;;4.90;54.00;96570.56;5053336;28;20190;-69
2024/01/22 10:19:48;;;;;;;10.77;4.50;;;;;;;4.91;53.60;96558.41;5053119;28;20186;-67
2024/01/22 10:22:20;;;;;;;9.50;5.07;;;;;;;4.97;54.23;96558.31;5052878;28;20520;-67
2024/01/22 10:24:59;;;;;;;5.83;4.93;;;;;;;4.98;53.28;96547.88;5053585;28;20413;-68
2024/01/22 10:27:25;;;;;;;8.10;5.30;;;;;;;4.88;53.79;96542.00;5051964;28;20409;-67
2024/01/22 10:29:50;;;;;;;8.87;5.37;;;;;;;4.83;54.67;96543.81;5050947;28;20843;-66
2024/01/22 10:32:23;;;;;;;6.40;4.40;;;;;;;5.05;53.32;96543.41;5049795;28;20421;-69
2024/01/22 10:34:53;;;;;;;7.73;4.73;;;;;;;4.95;54.05;96539.28;5048876;28;20175;-68
2024/01/22 10:37:19;;;;;;;7.50;5.03;;;;;;;5.13;53.64;96536.31;5048639;28;20560;-67
2024/01/22 10:40:00;;;;;;;20.10;7.47;;;;;;;5.03;54.02;96522.66;5048010;28;20417;-69
2024/01/22 10:42:26;;;;;;;11.20;5.33;;;;;;;5.09;53.97;96524.25;5047967;28;20830;-68
2024/01/22 10:44:53;;;;;;;12.07;5.40;;;;;;;5.25;53.58;96524.81;5048955;28;20521;-68
2024/01/22 10:47:19;;;;;;;6.67;4.43;;;;;;;5.48;52.94;96500.88;5049167;28;20452;-68
2024/01/22 10:49:46;;;;;;;8.00;5.23;;;;;;;5.39;53.40;96493.28;5047155;28;20917;-66
2024/01/22 10:52:15;;;;;;;5.13;4.43;;;;;;;5.61;52.72;96488.44;5048165;28;20512;-69
2024/01/22 10:54:41;;;;;;;7.20;4.70;;;;;;;5.67;52.16;96483.09;5047061;28;20421;-68
2024/01/22 10:57:14;;;;;;;6.37;4.80;;;;;;;5.94;51.40;96482.47;5047611;28;21050;-68
2024/01/22 10:59:45;;;;;;;4.87;4.07;;;;;;;6.05;51.40;96471.81;5047559;28;20210;-67
2024/01/22 11:02:16;;;;;;;50.90;8.60;;;;;;;6.22;51.02;96468.75;5048259;28;20461;-69
2024/01/22 11:04:49;;;;;;;86.27;15.67;;;;;;;6.31;50.61;96463.31;5048058;28;20405;-68
2024/01/22 11:07:16;;;;;;;11.37;5.17;;;;;;;6.53;49.94;96445.34;5047575;28;20452;-68
2024/01/22 11:09:46;;;;;;;12.53;4.77;;;;;;;6.58;49.47;96440.84;5046841;28;20467;-68
2024/01/22 11:12:13;;;;;;;6.57;4.10;;;;;;;6.48;49.64;96436.78;5047244;28;20467;-67
2024/01/22 11:14:40;;;;;;;6.47;4.83;;;;;;;6.52;50.14;96424.53;5049188;28;20897;-67
2024/01/22 11:17:07;;;;;;;8.00;4.27;;;;;;;6.37;50.08;96425.81;5048871;28;21348;-68
2024/01/22 11:19:33;;;;;;;7.13;4.00;;;;;;;6.36;50.29;96426.72;5046811;28;20459;-68
2024/01/22 11:22:00;;;;;;;18.40;4.40;;;;;;;6.27;50.73;96416.53;5047037;28;20463;-68
2024/01/22 11:24:25;;;;;;;4.70;4.00;;;;;;;6.29;50.90;96405.16;5047281;28;20418;-68
2024/01/22 11:26:53;;;;;;;7.23;3.80;;;;;;;6.28;51.26;96394.78;5047988;28;20425;-69
2024/01/22 11:29:22;;;;;;;9.03;4.20;;;;;;;6.34;51.39;96399.81;5048813;28;20167;-67
2024/01/22 11:31:48;;;;;;;6.07;4.37;;;;;;;6.31;51.20;96390.34;5047316;28;20876;-69
2024/01/22 11:34:14;;;;;;;10.20;3.97;;;;;;;6.31;51.25;96387.75;5048274;28;20417;-66
2024/01/22 11:36:49;;;;;;;4.83;3.40;;;;;;;6.21;51.54;96372.38;5049052;28;20198;-68
2024/01/22 11:39:46;;;;;;;4.40;3.73;;;;;;;6.24;51.74;96359.28;5052095;28;20971;-68
2024/01/22 11:42:22;;;;;;;4.47;3.47;;;;;;;6.19;52.08;96361.13;5051717;28;20564;-68